Time;durP1;ratioP1;P1;durP2;ratioP2;P2;SDS_P1;SDS_P2;PMS_P1;PMS_P2;Temp;Humidity;BMP_temperature;BMP_pressure;BME280_temperature;BME280_humidity;BME280_pressure;Samples;Min_cycle;Max_cycle;Signal;HPM_P1;HPM_P2
2024/01/18 00:00:40;;;;;;;19.00;12.85;;;;;;;4.18;100.00;96529.16;5064965;28;20028;-69
2024/01/18 00:03:05;;;;;;;17.30;11.48;;;;;;;4.24;100.00;96526.00;5054667;28;20039;-69
2024/01/18 00:05:33;;;;;;;16.75;11.32;;;;;;;4.04;100.00;96486.84;5054425;28;20023;-68
2024/01/18 00:07:58;;;;;;;15.50;10.68;;;;;;;4.01;100.00;96480.25;5074464;28;20494;-68
2024/01/18 00:10:26;;;;;;;15.00;10.20;;;;;;;4.21;100.00;96514.22;5056252;28;20633;-68
2024/01/18 00:12:58;;;;;;;15.25;10.23;;;;;;;4.14;100.00;96517.59;5078842;27;20119;-68
2024/01/18 00:15:26;;;;;;;13.95;9.38;;;;;;;3.82;100.00;96475.38;5065094;28;20024;-67
2024/01/18 00:17:56;;;;;;;13.00;9.48;;;;;;;3.94;100.00;96475.88;5057035;28;20031;-68
2024/01/18 00:20:24;;;;;;;13.60;9.52;;;;;;;4.11;100.00;96505.06;5067649;28;20131;-69
2024/01/18 00:22:51;;;;;;;14.60;10.52;;;;;;;3.63;100.00;96456.66;5050323;28;20100;-68
2024/01/18 00:25:17;;;;;;;14.80;10.38;;;;;;;4.05;100.00;96509.03;5072285;28;20566;-69
2024/01/18 00:27:45;;;;;;;14.25;9.68;;;;;;;3.93;100.00;96480.22;5071275;28;20145;-69
2024/01/18 00:30:11;;;;;;;13.95;9.95;;;;;;;4.01;100.00;96516.25;5059292;28;20692;-69
2024/01/18 00:32:38;;;;;;;13.45;10.18;;;;;;;4.09;100.00;96530.09;5072632;28;20039;-68
2024/01/18 00:35:04;;;;;;;13.50;10.15;;;;;;;4.00;100.00;96535.22;5054219;28;20948;-68
2024/01/18 00:37:29;;;;;;;15.15;10.98;;;;;;;3.98;100.00;96537.16;5078076;28;20124;-66
2024/01/18 00:39:55;;;;;;;17.73;12.50;;;;;;;3.85;100.00;96550.44;5069053;28;20024;-67
2024/01/18 00:42:20;;;;;;;19.70;12.80;;;;;;;3.87;100.00;96541.72;5066501;28;20047;-67
2024/01/18 00:44:46;;;;;;;18.50;13.05;;;;;;;3.75;100.00;96536.88;5068779;28;20578;-67
2024/01/18 00:47:14;;;;;;;18.85;13.38;;;;;;;3.52;100.00;96490.31;5066712;28;20394;-68
2024/01/18 00:49:43;;;;;;;18.67;13.10;;;;;;;3.84;100.00;96541.09;5070730;28;20035;-68
2024/01/18 00:52:13;;;;;;;17.48;12.35;;;;;;;3.92;100.00;96545.47;5058742;28;20039;-69
2024/01/18 00:54:38;;;;;;;18.17;12.45;;;;;;;3.84;100.00;96551.38;5074206;28;20655;-69
2024/01/18 00:57:04;;;;;;;17.35;12.05;;;;;;;3.61;100.00;96506.59;5071298;28;20032;-65
2024/01/18 00:59:29;;;;;;;18.30;12.32;;;;;;;3.84;100.00;96560.84;5075230;28;20094;-69
2024/01/18 01:01:55;;;;;;;16.10;11.77;;;;;;;3.42;100.00;96515.31;5053671;28;20436;-69
2024/01/18 01:04:22;;;;;;;16.88;11.95;;;;;;;3.75;100.00;96552.28;5062596;28;20023;-67
2024/01/18 01:06:50;;;;;;;18.88;12.73;;;;;;;3.75;100.00;96554.06;5054762;28;20024;-67
2024/01/18 01:09:15;;;;;;;17.65;12.82;;;;;;;3.74;100.00;96570.44;5060214;28;20674;-67
2024/01/18 01:11:41;;;;;;;15.52;11.63;;;;;;;3.83;100.00;96570.34;5072783;28;20034;-67
2024/01/18 01:14:06;;;;;;;18.50;12.55;;;;;;;3.59;100.00;96524.72;5053549;28;20043;-67
2024/01/18 01:16:34;;;;;;;17.70;11.95;;;;;;;3.91;100.00;96574.72;5075007;28;20030;-68
2024/01/18 01:18:59;;;;;;;16.58;11.32;;;;;;;3.95;100.00;96590.66;5043706;28;20040;-67
2024/01/18 01:21:27;;;;;;;15.38;11.10;;;;;;;3.67;100.00;96539.41;5068433;28;20348;-67
2024/01/18 01:23:56;;;;;;;15.60;11.50;;;;;;;4.02;100.00;96587.31;5078076;28;20035;-67
2024/01/18 01:26:26;;;;;;;16.23;11.37;;;;;;;3.70;100.00;96544.22;5068653;28;20028;-67
2024/01/18 01:28:51;;;;;;;14.18;10.18;;;;;;;3.59;100.00;96537.56;5057383;28;20133;-66
2024/01/18 01:31:19;;;;;;;15.25;10.18;;;;;;;3.91;100.00;96584.19;5072176;28;20545;-68
2024/01/18 01:33:44;;;;;;;14.10;9.77;;;;;;;3.93;100.00;96595.94;5056073;28;20028;-67
2024/01/18 01:36:12;;;;;;;14.68;10.45;;;;;;;3.90;100.00;96580.81;5075380;28;20629;-68
2024/01/18 01:38:38;;;;;;;13.07;9.60;;;;;;;3.86;100.00;96576.94;5056704;28;20038;-67
2024/01/18 01:41:06;;;;;;;14.65;10.45;;;;;;;3.87;100.00;96576.00;5076666;28;20036;-67
2024/01/18 01:43:32;;;;;;;14.75;10.00;;;;;;;3.83;100.00;96574.66;5067392;28;20028;-68
2024/01/18 01:45:57;;;;;;;14.65;10.30;;;;;;;3.88;100.00;96571.66;5056560;28;20043;-68
2024/01/18 01:48:23;;;;;;;16.52;10.93;;;;;;;3.92;100.00;96578.88;5073069;28;20032;-68
2024/01/18 01:50:49;;;;;;;14.57;10.05;;;;;;;3.96;100.00;96575.06;5054531;28;20028;-69
2024/01/18 01:53:15;;;;;;;15.18;10.23;;;;;;;3.94;100.00;96587.28;5071337;28;20024;-67
2024/01/18 01:55:43;;;;;;;13.52;9.75;;;;;;;3.95;100.00;96572.66;5062546;28;20020;-68
2024/01/18 01:58:10;;;;;;;14.95;9.80;;;;;;;3.92;100.00;96583.22;5057443;28;20131;-69
2024/01/18 02:00:36;;;;;;;14.88;10.48;;;;;;;3.97;100.00;96570.72;5074993;28;20065;-66
2024/01/18 02:03:03;;;;;;;15.32;11.25;;;;;;;3.94;100.00;96578.75;5059758;28;20694;-68
2024/01/18 02:05:32;;;;;;;15.85;10.65;;;;;;;3.78;100.00;96533.19;5071678;28;20040;-68
2024/01/18 02:08:02;;;;;;;15.73;10.90;;;;;;;3.66;100.00;96520.59;5054148;28;20070;-69
2024/01/18 02:10:30;;;;;;;15.00;10.98;;;;;;;4.07;100.00;96576.56;5055759;28;20553;-69
2024/01/18 02:12:58;;;;;;;15.95;11.38;;;;;;;4.09;100.00;96574.66;5052086;28;20083;-68
2024/01/18 02:15:25;;;;;;;14.77;10.77;;;;;;;4.02;100.00;96574.44;5076750;28;20024;-68
2024/01/18 02:17:53;;;;;;;16.10;11.68;;;;;;;4.05;100.00;96573.31;5043558;28;20075;-67
2024/01/18 02:20:19;;;;;;;16.35;11.07;;;;;;;3.67;100.00;96516.28;5070843;28;20028;-68
2024/01/18 02:22:44;;;;;;;15.65;11.68;;;;;;;3.98;100.00;96550.00;5072463;28;20035;-68
2024/01/18 02:25:20;;;;;;;14.57;10.68;;;;;;;3.69;100.00;96555.47;5035181;28;20032;-68
2024/01/18 02:27:48;;;;;;;17.15;10.77;;;;;;;3.38;100.00;96525.09;5039981;28;20395;-67
2024/01/18 02:30:16;;;;;;;15.18;11.13;;;;;;;3.66;100.00;96559.13;5057478;28;20109;-68
2024/01/18 02:32:41;;;;;;;15.82;11.27;;;;;;;3.77;100.00;96549.56;5048935;28;20032;-68
2024/01/18 02:35:07;;;;;;;16.67;11.50;;;;;;;3.73;100.00;96543.13;5059334;28;20035;-67
2024/01/18 02:37:33;;;;;;;14.95;10.48;;;;;;;3.79;100.00;96543.31;5052660;28;20024;-69
2024/01/18 02:40:02;;;;;;;16.38;11.38;;;;;;;3.70;100.00;96533.94;5039017;28;20020;-69
2024/01/18 02:42:27;;;;;;;15.95;11.45;;;;;;;3.64;100.00;96540.50;5052758;28;20610;-67
2024/01/18 02:44:57;;;;;;;15.15;10.88;;;;;;;3.60;100.00;96536.63;5084165;28;20534;-68
2024/01/18 02:47:24;;;;;;;15.65;10.45;;;;;;;3.40;100.00;96517.22;5045622;28;20032;-69
2024/01/18 02:49:49;;;;;;;16.20;10.93;;;;;;;3.51;100.00;96527.25;5055099;28;20036;-68
2024/01/18 02:52:15;;;;;;;16.58;11.43;;;;;;;3.58;100.00;96502.56;5077715;28;20068;-69
2024/01/18 02:54:40;;;;;;;19.08;12.10;;;;;;;3.58;100.00;96504.34;5053971;28;20017;-68
2024/01/18 02:57:08;;;;;;;18.55;11.90;;;;;;;3.56;100.00;96504.47;5062761;28;20076;-67
2024/01/18 02:59:36;;;;;;;16.50;10.73;;;;;;;3.26;100.00;96444.09;5071227;28;20111;-67
2024/01/18 03:02:04;;;;;;;16.33;10.23;;;;;;;3.61;100.00;96489.41;5071907;28;20141;-70
2024/01/18 03:04:29;;;;;;;15.48;10.05;;;;;;;3.43;100.00;96475.81;5047229;28;20057;-68
2024/01/18 03:06:54;;;;;;;16.55;10.55;;;;;;;3.56;100.00;96489.06;5055513;28;20039;-67
2024/01/18 03:09:20;;;;;;;13.68;9.02;;;;;;;3.50;100.00;96488.84;5068988;28;20042;-69
2024/01/18 03:11:47;;;;;;;14.32;10.00;;;;;;;3.57;100.00;96495.00;5075300;28;20450;-69
2024/01/18 03:14:13;;;;;;;15.25;10.45;;;;;;;3.47;100.00;96488.22;5066290;28;20109;-69
2024/01/18 03:16:42;;;;;;;15.40;11.05;;;;;;;3.45;100.00;96485.00;5078703;27;20850;-68
2024/01/18 03:19:12;;;;;;;15.20;10.02;;;;;;;3.51;100.00;96482.78;5061604;28;20027;-67
2024/01/18 03:21:37;;;;;;;15.80;10.43;;;;;;;3.45;100.00;96472.13;5091748;28;20035;-69
2024/01/18 03:24:03;;;;;;;15.73;10.85;;;;;;;3.44;100.00;96467.94;5061883;28;21390;-67
2024/01/18 03:26:31;;;;;;;15.63;9.90;;;;;;;3.47;100.00;96469.41;5061183;28;20032;-68
2024/01/18 03:28:57;;;;;;;14.77;10.68;;;;;;;3.27;100.00;96435.44;5074397;27;20181;-68
2024/01/18 03:31:22;;;;;;;15.73;11.18;;;;;;;3.58;100.00;96461.44;5077936;28;20538;-67
2024/01/18 03:33:49;;;;;;;16.75;9.63;;;;;;;3.52;100.00;96443.25;5076767;28;20023;-67
2024/01/18 03:36:20;;;;;;;15.77;10.75;;;;;;;3.51;100.00;96447.59;5097464;28;20678;-69
2024/01/18 03:38:45;;;;;;;16.35;11.45;;;;;;;3.68;100.00;96457.94;5082937;28;20031;-69
2024/01/18 03:41:14;;;;;;;16.90;11.80;;;;;;;3.65;100.00;96456.47;5060733;28;20394;-66
2024/01/18 03:43:39;;;;;;;16.02;11.82;;;;;;;3.70;100.00;96448.31;5055950;28;20101;-68
2024/01/18 03:46:12;;;;;;;16.65;11.50;;;;;;;3.80;100.00;96457.53;5078088;28;20942;-68
2024/01/18 03:48:37;;;;;;;15.80;11.55;;;;;;;3.84;100.00;96476.00;5078459;27;20050;-67
2024/01/18 03:51:06;;;;;;;15.23;11.75;;;;;;;3.91;100.00;96478.78;5060235;27;20131;-67
2024/01/18 03:53:32;;;;;;;19.23;12.32;;;;;;;4.00;100.00;96476.06;5059917;28;20479;-67
2024/01/18 03:55:59;;;;;;;15.13;10.73;;;;;;;3.63;100.00;96423.25;5068779;28;20043;-67
2024/01/18 03:58:25;;;;;;;15.60;11.40;;;;;;;3.92;100.00;96455.47;5076965;28;20024;-66
2024/01/18 04:00:51;;;;;;;17.10;11.98;;;;;;;4.04;100.00;96450.84;5076926;28;20077;-69
2024/01/18 04:03:20;;;;;;;15.48;11.35;;;;;;;3.96;100.00;96461.09;5080584;27;20027;-68
2024/01/18 04:05:48;;;;;;;15.32;10.80;;;;;;;4.07;100.00;96473.69;5062740;28;20038;-67
2024/01/18 04:08:15;;;;;;;16.63;11.38;;;;;;;4.14;100.00;96474.66;5058879;28;20036;-67
2024/01/18 04:10:43;;;;;;;13.23;10.27;;;;;;;4.11;100.00;96471.63;5081728;28;20031;-68
2024/01/18 04:13:08;;;;;;;14.85;9.45;;;;;;;3.97;100.00;96453.22;5057094;28;20032;-67
2024/01/18 04:15:34;;;;;;;13.38;9.05;;;;;;;3.80;100.00;96433.59;5061847;27;20724;-67
2024/01/18 04:18:02;;;;;;;13.70;9.57;;;;;;;3.74;100.00;96435.00;5078289;28;20091;-67
2024/01/18 04:20:29;;;;;;;13.02;9.00;;;;;;;3.85;100.00;96480.19;5099173;27;20497;-67
2024/01/18 04:22:54;;;;;;;13.13;8.43;;;;;;;3.87;100.00;96472.31;5092248;27;20028;-67
2024/01/18 04:25:20;;;;;;;12.35;8.15;;;;;;;3.82;100.00;96447.09;5055860;28;20475;-69
2024/01/18 04:27:45;;;;;;;12.85;8.50;;;;;;;3.90;100.00;96452.25;5078135;27;20059;-68
2024/01/18 04:30:14;;;;;;;11.93;8.45;;;;;;;4.02;100.00;96476.72;5080101;27;20761;-69
2024/01/18 04:32:40;;;;;;;12.70;8.50;;;;;;;4.06;100.00;96491.84;5056541;28;20150;-68
2024/01/18 04:35:05;;;;;;;16.10;10.77;;;;;;;4.00;100.00;96473.50;5079237;28;20028;-69
2024/01/18 04:37:31;;;;;;;19.17;13.55;;;;;;;3.99;100.00;96474.44;5073486;28;20031;-66
2024/01/18 04:39:59;;;;;;;27.20;17.98;;;;;;;3.94;100.00;96489.56;5056350;28;20111;-68
2024/01/18 04:42:24;;;;;;;28.63;18.10;;;;;;;3.85;100.00;96496.44;5073387;28;20695;-67
2024/01/18 04:44:52;;;;;;;26.38;17.30;;;;;;;3.91;100.00;96497.56;5061608;27;20076;-67
2024/01/18 04:47:17;;;;;;;27.58;17.48;;;;;;;3.92;100.00;96498.38;5075501;28;20122;-67
2024/01/18 04:49:42;;;;;;;29.27;18.45;;;;;;;3.59;100.00;96450.19;5076427;28;20035;-67
2024/01/18 04:52:08;;;;;;;26.90;17.30;;;;;;;3.87;100.00;96505.75;5080799;28;20036;-70
2024/01/18 04:54:33;;;;;;;29.95;18.52;;;;;;;3.90;100.00;96492.59;5079913;28;20024;-67
2024/01/18 04:57:01;;;;;;;28.70;18.42;;;;;;;3.79;100.00;96486.75;5071260;28;20027;-70
2024/01/18 04:59:27;;;;;;;27.60;17.25;;;;;;;3.76;100.00;96473.41;5092896;27;20573;-69
2024/01/18 05:01:55;;;;;;;27.77;18.67;;;;;;;3.93;100.00;96511.09;5077360;28;20035;-67
2024/01/18 05:04:20;;;;;;;29.13;18.85;;;;;;;4.03;100.00;96511.78;5078176;28;20371;-67
2024/01/18 05:06:46;;;;;;;30.45;18.85;;;;;;;3.98;100.00;96520.88;5072549;28;20031;-68
2024/01/18 05:09:11;;;;;;;27.17;17.00;;;;;;;3.99;100.00;96514.81;5071602;28;20064;-68
2024/01/18 05:11:42;;;;;;;29.25;17.88;;;;;;;3.92;100.00;96511.22;5059137;28;20051;-68
2024/01/18 05:14:09;;;;;;;31.13;19.27;;;;;;;4.05;100.00;96514.16;5077651;28;20187;-67
2024/01/18 05:16:40;;;;;;;30.95;19.90;;;;;;;4.03;100.00;96524.63;5074021;28;20081;-68
2024/01/18 05:19:08;;;;;;;29.63;19.10;;;;;;;4.08;100.00;96518.22;5078107;28;20035;-68
2024/01/18 05:21:37;;;;;;;29.85;18.73;;;;;;;4.15;100.00;96534.66;5079974;27;20039;-66
2024/01/18 05:24:03;;;;;;;30.70;19.10;;;;;;;4.06;100.00;96507.28;5070435;28;20028;-68
2024/01/18 05:26:28;;;;;;;33.20;20.77;;;;;;;4.08;100.00;96508.72;5065001;28;20522;-67
2024/01/18 05:28:53;;;;;;;30.23;19.85;;;;;;;4.10;100.00;96521.44;5073615;28;20147;-66
2024/01/18 05:31:21;;;;;;;32.35;19.83;;;;;;;4.08;100.00;96526.72;5077932;28;20301;-69
2024/01/18 05:33:49;;;;;;;32.65;20.10;;;;;;;4.01;100.00;96516.25;5074355;28;20036;-68
2024/01/18 05:36:19;;;;;;;31.42;19.30;;;;;;;4.11;100.00;96508.44;5064085;28;20777;-68
2024/01/18 05:38:44;;;;;;;31.02;19.88;;;;;;;4.14;100.00;96502.16;5066505;28;20084;-68
2024/01/18 05:41:11;;;;;;;30.02;19.05;;;;;;;4.23;100.00;96501.22;5076585;28;20031;-66
2024/01/18 05:43:36;;;;;;;30.58;18.95;;;;;;;4.17;100.00;96501.84;5078189;28;20099;-68
2024/01/18 05:46:08;;;;;;;32.67;19.20;;;;;;;3.91;100.00;96464.16;5058725;28;20471;-68
2024/01/18 05:48:33;;;;;;;29.23;19.13;;;;;;;4.26;100.00;96524.06;5073345;28;20032;-68
2024/01/18 05:51:03;;;;;;;29.90;18.98;;;;;;;4.26;100.00;96536.94;5061177;28;20016;-68
2024/01/18 05:53:31;;;;;;;29.67;19.08;;;;;;;3.94;100.00;96499.03;5055928;28;20028;-68
2024/01/18 05:55:59;;;;;;;31.83;20.73;;;;;;;4.12;100.00;96550.38;5078160;28;20104;-67
2024/01/18 05:58:25;;;;;;;29.67;20.95;;;;;;;4.21;100.00;96547.66;5055455;28;20036;-68
2024/01/18 06:00:53;;;;;;;33.65;20.67;;;;;;;3.80;100.00;96505.56;5076033;28;20115;-68
2024/01/18 06:03:21;;;;;;;35.83;21.25;;;;;;;4.17;100.00;96564.38;5070701;28;20043;-69
2024/01/18 06:05:46;;;;;;;32.25;21.10;;;;;;;4.26;100.00;96569.56;5055955;28;20068;-66
2024/01/18 06:08:11;;;;;;;32.70;20.33;;;;;;;4.05;100.00;96527.03;5070241;28;20065;-67
2024/01/18 06:10:39;;;;;;;31.17;20.60;;;;;;;4.30;100.00;96576.81;5060874;28;20332;-69
2024/01/18 06:13:05;;;;;;;31.65;20.52;;;;;;;4.36;100.00;96580.53;5087696;28;20159;-67
2024/01/18 06:15:32;;;;;;;31.85;20.25;;;;;;;4.33;100.00;96586.81;5051871;28;20032;-69
2024/01/18 06:18:03;;;;;;;32.83;21.30;;;;;;;3.77;100.00;96498.16;5077984;28;20104;-67
2024/01/18 06:20:29;;;;;;;32.80;21.00;;;;;;;4.27;100.00;96569.44;5074917;27;20028;-68
2024/01/18 06:22:54;;;;;;;30.05;20.25;;;;;;;4.24;100.00;96544.00;5078955;28;20175;-67
2024/01/18 06:25:22;;;;;;;32.35;20.55;;;;;;;4.29;100.00;96558.94;5061760;27;20031;-67
2024/01/18 06:27:50;;;;;;;31.05;19.10;;;;;;;4.11;100.00;96552.16;5096867;28;20073;-68
2024/01/18 06:30:20;;;;;;;32.42;20.10;;;;;;;4.20;100.00;96550.41;5075731;28;20088;-68
2024/01/18 06:32:46;;;;;;;31.50;20.27;;;;;;;4.17;100.00;96556.66;5072120;28;20058;-67
2024/01/18 06:35:13;;;;;;;31.02;20.40;;;;;;;4.19;100.00;96553.94;5063062;27;20018;-68
2024/01/18 06:37:43;;;;;;;29.83;19.42;;;;;;;4.01;100.00;96536.81;5080977;27;20059;-68
2024/01/18 06:40:10;;;;;;;29.48;18.65;;;;;;;4.11;100.00;96562.44;5093403;27;20051;-66
2024/01/18 06:42:37;;;;;;;31.27;20.13;;;;;;;4.21;100.00;96572.59;5079239;28;20058;-67
2024/01/18 06:45:03;;;;;;;31.63;20.15;;;;;;;4.22;100.00;96569.06;5083079;28;20169;-68
2024/01/18 06:47:31;;;;;;;33.28;20.25;;;;;;;3.95;100.00;96522.00;5077799;28;20788;-68
2024/01/18 06:49:59;;;;;;;30.45;20.00;;;;;;;4.01;100.00;96567.69;5063525;27;20035;-67
2024/01/18 06:52:26;;;;;;;30.73;19.30;;;;;;;3.93;100.00;96541.94;5086549;27;20047;-69
2024/01/18 06:54:57;;;;;;;29.92;19.75;;;;;;;4.17;100.00;96559.25;5064208;28;20024;-68
2024/01/18 06:57:24;;;;;;;29.30;19.90;;;;;;;4.15;100.00;96548.31;5072082;27;20044;-67
2024/01/18 06:59:51;;;;;;;29.05;18.92;;;;;;;4.27;100.00;96572.00;5078582;28;20036;-68
2024/01/18 07:02:19;;;;;;;29.63;18.95;;;;;;;4.22;100.00;96579.38;5065261;28;20039;-68
2024/01/18 07:04:44;;;;;;;28.65;18.40;;;;;;;4.08;100.00;96580.75;5057310;28;20043;-65
2024/01/18 07:07:09;;;;;;;27.48;17.95;;;;;;;3.89;100.00;96538.06;5065423;28;20039;-68
2024/01/18 07:09:37;;;;;;;26.42;16.45;;;;;;;4.20;100.00;96589.00;5091933;27;20474;-69
2024/01/18 07:12:03;;;;;;;26.23;16.70;;;;;;;3.85;100.00;96542.72;5076335;28;20035;-66
2024/01/18 07:14:30;;;;;;;24.00;16.13;;;;;;;4.09;100.00;96597.78;5062576;28;20106;-69
2024/01/18 07:16:56;;;;;;;29.15;16.77;;;;;;;4.17;100.00;96597.03;5071553;28;20039;-68
2024/01/18 07:19:26;;;;;;;22.00;13.95;;;;;;;3.84;100.00;96543.66;5061895;27;20027;-67
2024/01/18 07:21:53;;;;;;;21.98;13.25;;;;;;;4.12;100.00;96605.19;5075125;28;20478;-67
2024/01/18 07:24:20;;;;;;;19.05;11.75;;;;;;;4.01;100.00;96580.53;5082859;27;20039;-68
2024/01/18 07:26:46;;;;;;;20.73;13.13;;;;;;;4.11;100.00;96584.78;5058640;28;20042;-67
2024/01/18 07:29:11;;;;;;;20.95;13.20;;;;;;;4.01;100.00;96577.97;5079853;28;20821;-68
2024/01/18 07:31:39;;;;;;;19.90;12.25;;;;;;;4.12;100.00;96581.25;5088436;27;20593;-69
2024/01/18 07:34:04;;;;;;;16.98;11.57;;;;;;;4.13;100.00;96578.53;5062681;28;20338;-67
2024/01/18 07:36:30;;;;;;;18.85;12.45;;;;;;;4.06;100.00;96571.56;5061534;27;20653;-67
2024/01/18 07:38:55;;;;;;;18.92;12.60;;;;;;;3.94;100.00;96550.44;5076784;28;20031;-67
2024/01/18 07:41:23;;;;;;;19.40;12.85;;;;;;;3.99;100.00;96567.03;5066218;27;20031;-68
2024/01/18 07:43:48;;;;;;;19.95;14.00;;;;;;;4.08;100.00;96554.22;5087623;27;20041;-67
2024/01/18 07:46:14;;;;;;;18.45;13.25;;;;;;;4.05;100.00;96547.59;5059813;28;20024;-69
2024/01/18 07:48:41;;;;;;;20.45;13.98;;;;;;;3.78;100.00;96500.56;5075522;28;20027;-68
2024/01/18 07:51:07;;;;;;;19.80;12.80;;;;;;;4.06;100.00;96543.28;5091415;27;20032;-69
2024/01/18 07:53:32;;;;;;;15.13;10.63;;;;;;;4.01;100.00;96547.09;5054312;28;20028;-69
2024/01/18 07:56:00;;;;;;;18.65;12.52;;;;;;;4.01;100.00;96551.44;5060718;27;20051;-68
2024/01/18 07:58:25;;;;;;;16.88;11.35;;;;;;;4.10;100.00;96573.66;5074625;28;20074;-68
2024/01/18 08:00:51;;;;;;;18.92;11.70;;;;;;;4.10;100.00;96590.88;5053851;28;20024;-69
2024/01/18 08:03:16;;;;;;;16.25;11.43;;;;;;;4.10;100.00;96601.16;5061641;27;20027;-69
2024/01/18 08:05:42;;;;;;;16.10;9.93;;;;;;;3.76;100.00;96553.09;5065268;28;20899;-69
2024/01/18 08:08:07;;;;;;;12.50;7.90;;;;;;;4.07;100.00;96586.03;5062619;28;20038;-69
2024/01/18 08:10:35;;;;;;;16.08;10.85;;;;;;;3.79;100.00;96539.94;5067356;28;20062;-68
2024/01/18 08:13:03;;;;;;;14.95;10.07;;;;;;;3.82;100.00;96553.28;5073390;28;20050;-67
2024/01/18 08:15:29;;;;;;;16.35;11.13;;;;;;;3.88;100.00;96556.22;5087564;28;20031;-69
2024/01/18 08:17:57;;;;;;;16.30;11.13;;;;;;;4.07;100.00;96594.56;5077120;27;20027;-68
2024/01/18 08:20:23;;;;;;;15.93;10.15;;;;;;;4.09;100.00;96589.25;5079966;28;20085;-69
2024/01/18 08:22:49;;;;;;;15.82;9.45;;;;;;;4.10;100.00;96575.44;5058240;28;20027;-68
2024/01/18 08:25:15;;;;;;;15.07;9.35;;;;;;;3.94;100.00;96555.59;5079852;27;20133;-69
2024/01/18 08:27:42;;;;;;;13.25;8.23;;;;;;;4.14;100.00;96563.88;5077285;28;20449;-68
2024/01/18 08:30:12;;;;;;;13.95;9.15;;;;;;;4.16;100.00;96560.22;5069648;28;20036;-68
2024/01/18 08:32:38;;;;;;;15.63;9.65;;;;;;;4.19;100.00;96556.50;5079339;27;20412;-67
2024/01/18 08:35:07;;;;;;;14.63;9.48;;;;;;;4.19;100.00;96538.50;5056367;28;20505;-68
2024/01/18 08:37:33;;;;;;;16.17;10.60;;;;;;;4.20;100.00;96529.84;5060487;27;20119;-69
2024/01/18 08:39:59;;;;;;;15.93;9.88;;;;;;;4.21;100.00;96542.53;5078207;28;20019;-69
2024/01/18 08:42:24;;;;;;;13.02;8.35;;;;;;;4.18;100.00;96544.59;5073567;28;20034;-68
2024/01/18 08:44:53;;;;;;;15.23;9.70;;;;;;;4.20;100.00;96560.72;5061805;27;21334;-67
2024/01/18 08:47:18;;;;;;;12.85;8.35;;;;;;;4.20;100.00;96547.84;5067213;28;20024;-68
2024/01/18 08:49:46;;;;;;;13.43;7.97;;;;;;;4.19;100.00;96536.72;5081957;28;20282;-68
2024/01/18 08:52:14;;;;;;;11.93;7.45;;;;;;;4.31;100.00;96547.56;5052699;28;20401;-67
2024/01/18 08:54:41;;;;;;;11.88;7.82;;;;;;;4.33;100.00;96543.06;5067463;27;20451;-68
2024/01/18 08:57:07;;;;;;;13.45;8.70;;;;;;;4.29;100.00;96538.38;5075955;28;20144;-69
2024/01/18 08:59:33;;;;;;;14.02;9.73;;;;;;;4.31;100.00;96557.84;5077219;28;20792;-68
2024/01/18 09:01:59;;;;;;;15.00;9.77;;;;;;;4.16;100.00;96521.63;5079157;27;20101;-66
2024/01/18 09:04:24;;;;;;;14.77;9.77;;;;;;;4.25;100.00;96548.16;5073495;28;20048;-68
2024/01/18 09:06:50;;;;;;;12.98;8.98;;;;;;;4.39;100.00;96565.59;5079007;28;20520;-67
2024/01/18 09:09:18;;;;;;;13.57;9.10;;;;;;;4.42;100.00;96559.34;5069502;28;20474;-68
2024/01/18 09:11:43;;;;;;;13.63;8.38;;;;;;;4.47;100.00;96566.56;5080918;28;20065;-70
2024/01/18 09:14:08;;;;;;;11.90;8.32;;;;;;;4.55;100.00;96572.56;5069772;28;20150;-66
2024/01/18 09:16:34;;;;;;;11.95;7.95;;;;;;;4.55;100.00;96571.75;5070479;28;20035;-68
2024/01/18 09:19:00;;;;;;;17.23;10.90;;;;;;;4.66;100.00;96574.03;5060838;28;20031;-67
2024/01/18 09:21:25;;;;;;;16.60;10.48;;;;;;;4.67;100.00;96580.78;5062412;28;20036;-69
2024/01/18 09:23:51;;;;;;;16.10;10.13;;;;;;;4.66;100.00;96573.25;5047932;28;20110;-68
2024/01/18 09:26:19;;;;;;;12.63;8.48;;;;;;;4.51;100.00;96545.53;5058977;28;20028;-67
2024/01/18 09:28:44;;;;;;;13.30;8.52;;;;;;;4.44;100.00;96539.41;5057371;28;20028;-66
2024/01/18 09:31:13;;;;;;;12.32;8.40;;;;;;;4.39;100.00;96537.28;5064749;28;20039;-64
2024/01/18 09:33:38;;;;;;;12.77;8.40;;;;;;;4.73;100.00;96582.75;5052977;28;20122;-66
2024/01/18 09:36:05;;;;;;;12.32;8.02;;;;;;;4.73;100.00;96582.75;5056934;28;20025;-65
2024/01/18 09:38:33;;;;;;;13.55;8.43;;;;;;;4.80;100.00;96588.88;5059851;28;20027;-67
2024/01/18 09:41:08;;;;;;;17.80;9.70;;;;;;;4.84;100.00;96575.66;5065409;28;20023;-66
2024/01/18 09:43:39;;;;;;;16.00;10.23;;;;;;;4.86;100.00;96578.91;5052184;28;20035;-68
2024/01/18 09:46:08;;;;;;;14.05;8.57;;;;;;;4.86;100.00;96587.44;5054499;28;20066;-66
2024/01/18 09:48:36;;;;;;;14.25;9.38;;;;;;;4.92;100.00;96591.16;5059858;28;20648;-68
2024/01/18 09:51:06;;;;;;;13.70;8.75;;;;;;;4.93;100.00;96595.34;5042920;28;20634;-66
2024/01/18 09:53:36;;;;;;;11.43;7.07;;;;;;;4.65;100.00;96556.97;5076133;28;20559;-66
2024/01/18 09:56:18;;;;;;;11.40;7.70;;;;;;;4.94;100.00;96610.63;5062768;28;20073;-68
2024/01/18 09:58:46;;;;;;;12.55;7.47;;;;;;;5.06;100.00;96606.00;5043444;28;20055;-68
2024/01/18 10:01:18;;;;;;;10.18;6.50;;;;;;;5.14;100.00;96612.91;5082867;28;20111;-69
2024/01/18 10:03:44;;;;;;;11.00;6.72;;;;;;;4.85;100.00;96577.28;5060457;28;20036;-68
2024/01/18 10:06:09;;;;;;;11.25;7.18;;;;;;;4.93;100.00;96572.16;5046634;28;20039;-66
2024/01/18 10:08:37;;;;;;;10.85;6.85;;;;;;;5.09;100.00;96603.09;5044424;28;20027;-66
2024/01/18 10:11:05;;;;;;;11.20;6.93;;;;;;;5.23;100.00;96611.97;5067921;27;20032;-66
2024/01/18 10:13:53;;;;;;;10.57;6.80;;;;;;;5.19;100.00;96608.91;5057175;28;20120;-66
2024/01/18 10:16:32;;;;;;;9.32;6.28;;;;;;;5.23;100.00;96611.16;5064178;28;20802;-64
2024/01/18 10:19:02;;;;;;;10.88;7.20;;;;;;;5.20;100.00;96612.28;5062912;28;20020;-67
2024/01/18 10:21:28;;;;;;;10.57;6.53;;;;;;;5.22;100.00;96606.97;5081091;27;20027;-67
2024/01/18 10:23:57;;;;;;;10.57;7.20;;;;;;;5.30;100.00;96606.97;5052972;28;20741;-66
2024/01/18 10:26:26;;;;;;;10.55;7.13;;;;;;;5.32;100.00;96612.78;5044779;28;20080;-66
2024/01/18 10:28:52;;;;;;;11.70;7.07;;;;;;;5.34;100.00;96609.06;5081414;28;20024;-67
2024/01/18 10:31:17;;;;;;;10.18;6.53;;;;;;;5.24;100.00;96612.75;5064710;28;20035;-66
2024/01/18 10:33:44;;;;;;;10.43;7.10;;;;;;;5.23;100.00;96600.84;5056513;28;20438;-67
2024/01/18 10:36:13;;;;;;;10.68;6.75;;;;;;;5.30;100.00;96601.81;5048535;27;20031;-67
2024/01/18 10:38:41;;;;;;;11.18;6.35;;;;;;;5.30;100.00;96599.25;5066115;28;20020;-66
2024/01/18 10:41:07;;;;;;;9.70;6.28;;;;;;;5.35;100.00;96594.44;5071209;28;20158;-66
2024/01/18 10:43:34;;;;;;;10.93;6.28;;;;;;;5.31;100.00;96588.78;5065017;28;20024;-67
2024/01/18 10:46:00;;;;;;;10.70;6.88;;;;;;;5.09;100.00;96550.75;5073602;28;20093;-68
2024/01/18 10:48:33;;;;;;;9.63;6.35;;;;;;;5.37;100.00;96580.41;5064508;28;20962;-67
2024/01/18 10:51:01;;;;;;;10.57;6.47;;;;;;;5.46;100.00;96581.22;5052057;28;21078;-66
2024/01/18 10:53:33;;;;;;;9.85;6.25;;;;;;;5.51;100.00;96584.09;5071332;28;20084;-66
2024/01/18 10:55:59;;;;;;;10.05;6.53;;;;;;;5.19;100.00;96518.72;5045286;28;20108;-67
2024/01/18 10:58:24;;;;;;;9.35;6.28;;;;;;;5.58;100.00;96573.94;5073864;28;20126;-67
2024/01/18 11:00:50;;;;;;;9.52;6.53;;;;;;;5.61;100.00;96578.78;5061896;28;20020;-67
2024/01/18 11:03:18;;;;;;;9.93;5.90;;;;;;;5.44;100.00;96564.28;5056711;28;20752;-66
2024/01/18 11:05:48;;;;;;;8.73;5.75;;;;;;;5.51;100.00;96565.22;5048157;28;20020;-68
2024/01/18 11:08:17;;;;;;;9.73;6.47;;;;;;;5.65;100.00;96564.56;5045552;28;20051;-67
2024/01/18 11:10:46;;;;;;;9.50;6.45;;;;;;;5.48;100.00;96576.69;5056523;28;20025;-66
2024/01/18 11:13:13;;;;;;;9.35;6.35;;;;;;;5.52;100.00;96559.91;5052788;28;20067;-66
2024/01/18 11:15:44;;;;;;;9.60;6.38;;;;;;;5.54;100.00;96578.59;5038154;28;20024;-65
2024/01/18 11:18:13;;;;;;;9.80;6.25;;;;;;;5.38;100.00;96533.06;5037532;28;20039;-67